createdAt,value
2022-11-18T00:00:05.994Z,970.52
2022-11-18T00:01:06.014Z,970.50
2022-11-18T00:02:06.023Z,970.55
2022-11-18T00:03:05.966Z,970.48
2022-11-18T00:04:05.971Z,970.48
2022-11-18T00:05:05.940Z,970.48
2022-11-18T00:06:05.940Z,970.54
2022-11-18T00:07:06.105Z,970.53
2022-11-18T00:08:05.907Z,970.55
2022-11-18T00:09:05.899Z,970.59
2022-11-18T00:10:05.932Z,970.60
2022-11-18T00:11:05.882Z,970.63
2022-11-18T00:12:05.882Z,970.64
2022-11-18T00:13:05.868Z,970.65
2022-11-18T00:14:05.860Z,970.69
2022-11-18T00:15:05.892Z,970.70
2022-11-18T00:16:05.822Z,970.74
2022-11-18T00:17:05.855Z,970.69
2022-11-18T00:18:05.819Z,970.69
2022-11-18T00:19:05.792Z,970.71
2022-11-18T00:20:05.797Z,970.79
2022-11-18T00:21:05.774Z,970.76
2022-11-18T00:22:05.855Z,970.74
2022-11-18T00:23:05.776Z,970.79
2022-11-18T00:24:05.750Z,970.79
2022-11-18T00:25:05.737Z,970.82
2022-11-18T00:26:05.773Z,970.83
2022-11-18T00:27:05.723Z,970.82
2022-11-18T00:28:05.693Z,970.82
2022-11-18T00:29:05.698Z,970.80
2022-11-18T00:30:05.673Z,970.80
2022-11-18T00:31:05.654Z,970.83
2022-11-18T00:32:05.686Z,970.78
2022-11-18T00:33:05.708Z,970.78
2022-11-18T00:34:05.631Z,970.74
2022-11-18T00:35:05.643Z,970.68
2022-11-18T00:36:05.610Z,970.79
2022-11-18T00:37:05.648Z,970.79
2022-11-18T00:38:05.586Z,970.81
2022-11-18T00:39:05.577Z,970.77
2022-11-18T00:40:05.598Z,970.82
2022-11-18T00:41:05.568Z,970.81
2022-11-18T00:42:05.620Z,970.81
2022-11-18T00:43:05.569Z,970.84
2022-11-18T00:44:09.506Z,970.87
2022-11-18T00:45:05.531Z,970.83
2022-11-18T00:46:05.529Z,970.91
2022-11-18T00:47:05.574Z,970.89
2022-11-18T00:48:05.489Z,970.87
2022-11-18T00:49:05.464Z,970.83
2022-11-18T00:50:05.454Z,970.90
2022-11-18T00:51:05.457Z,970.86
2022-11-18T00:52:05.547Z,970.90
2022-11-18T00:53:05.455Z,970.94
2022-11-18T00:54:05.406Z,970.95
2022-11-18T00:55:05.410Z,970.96
2022-11-18T00:56:05.377Z,970.98
2022-11-18T00:57:05.429Z,970.97
2022-11-18T00:58:05.364Z,971.04
2022-11-18T00:59:05.370Z,971.07
2022-11-18T01:00:05.346Z,971.05
2022-11-18T01:01:05.449Z,971.03
2022-11-18T01:02:05.353Z,971.13
2022-11-18T01:03:05.302Z,971.15
2022-11-18T01:04:05.317Z,971.20
2022-11-18T01:05:05.368Z,971.22
2022-11-18T01:06:05.288Z,971.19
2022-11-18T01:07:05.293Z,971.25
2022-11-18T01:08:05.284Z,971.23
2022-11-18T01:09:05.259Z,971.20
2022-11-18T01:10:05.238Z,971.22
2022-11-18T01:11:05.230Z,971.26
2022-11-18T01:12:05.206Z,971.31
2022-11-18T01:13:05.209Z,971.34
2022-11-18T01:14:05.296Z,971.38
2022-11-18T01:15:05.173Z,971.39
2022-11-18T01:16:05.165Z,971.37
2022-11-18T01:17:05.233Z,971.45
2022-11-18T01:18:05.148Z,971.47
2022-11-18T01:19:05.150Z,971.47
2022-11-18T01:20:05.119Z,971.52
2022-11-18T01:21:05.109Z,971.53
2022-11-18T01:22:05.135Z,971.55
2022-11-18T01:23:05.130Z,971.57
2022-11-18T01:24:05.074Z,971.60
2022-11-18T01:25:05.071Z,971.62
2022-11-18T01:26:05.057Z,971.67
2022-11-18T01:27:05.084Z,971.65
2022-11-18T01:28:05.033Z,971.67
2022-11-18T01:29:05.086Z,971.66
2022-11-18T01:30:05.022Z,971.65
2022-11-18T01:31:05.095Z,971.64
2022-11-18T01:33:05.995Z,971.66
2022-11-18T01:34:04.975Z,971.71
2022-11-18T01:35:04.965Z,971.76
2022-11-18T01:36:04.955Z,971.78
2022-11-18T01:37:05.032Z,971.71
2022-11-18T01:38:04.927Z,971.74
2022-11-18T01:39:04.918Z,971.73
2022-11-18T01:40:04.911Z,971.78
2022-11-18T01:41:04.899Z,971.76
2022-11-18T01:42:04.906Z,971.82
2022-11-18T01:43:04.937Z,971.75
2022-11-18T01:44:04.871Z,971.80
2022-11-18T01:45:04.914Z,971.78
2022-11-18T01:46:04.881Z,971.79
2022-11-18T01:47:04.863Z,971.81
2022-11-18T01:48:04.825Z,971.81
2022-11-18T01:49:04.821Z,971.82
2022-11-18T01:50:04.820Z,971.84
2022-11-18T01:51:04.857Z,971.82
2022-11-18T01:52:04.842Z,971.82
2022-11-18T01:53:04.792Z,971.85
2022-11-18T01:54:04.747Z,971.94
2022-11-18T01:55:04.791Z,971.93
2022-11-18T01:56:04.727Z,971.97
2022-11-18T01:57:04.729Z,971.99
2022-11-18T01:58:04.715Z,972.01
2022-11-18T01:59:04.708Z,971.98
2022-11-18T02:00:04.706Z,972.04
2022-11-18T02:01:04.761Z,972.09
2022-11-18T02:02:04.775Z,972.11
2022-11-18T02:03:04.652Z,972.14
2022-11-18T02:04:04.660Z,972.15
2022-11-18T02:05:04.688Z,972.14
2022-11-18T02:06:04.665Z,972.09
2022-11-18T02:07:04.696Z,972.17
2022-11-18T02:08:04.603Z,972.15
2022-11-18T02:09:04.582Z,972.18
2022-11-18T02:10:04.630Z,972.19
2022-11-18T02:11:04.591Z,972.24
2022-11-18T02:12:04.602Z,972.25
2022-11-18T02:13:04.559Z,972.29
2022-11-18T02:14:04.583Z,972.28
2022-11-18T02:15:04.570Z,972.24
2022-11-18T02:16:04.524Z,972.27
2022-11-18T02:17:04.601Z,972.32
2022-11-18T02:18:04.492Z,972.33
2022-11-18T02:19:04.505Z,972.34
2022-11-18T02:20:04.475Z,972.33
2022-11-18T02:21:04.501Z,972.33
2022-11-18T02:22:04.461Z,972.36
2022-11-18T02:23:04.466Z,972.41
2022-11-18T02:24:04.455Z,972.39
2022-11-18T02:25:04.441Z,972.47
2022-11-18T02:26:04.400Z,972.47
2022-11-18T02:27:04.391Z,972.50
2022-11-18T02:28:04.410Z,972.51
2022-11-18T02:29:04.384Z,972.48
2022-11-18T02:30:04.490Z,972.48
2022-11-18T02:31:04.363Z,972.55
2022-11-18T02:32:04.341Z,972.58
2022-11-18T02:33:04.362Z,972.61
2022-11-18T02:34:04.341Z,972.58
2022-11-18T02:35:04.321Z,972.61
2022-11-18T02:36:04.301Z,972.56
2022-11-18T02:37:04.324Z,972.60
2022-11-18T02:38:04.277Z,972.64
2022-11-18T02:39:04.303Z,972.64
2022-11-18T02:40:04.265Z,972.64
2022-11-18T02:41:04.317Z,972.65
2022-11-18T02:42:04.316Z,972.63
2022-11-18T02:43:04.225Z,972.64
2022-11-18T02:44:04.218Z,972.66
2022-11-18T02:45:04.214Z,972.60
2022-11-18T02:46:04.193Z,972.61
2022-11-18T02:47:04.318Z,972.58
2022-11-18T02:48:04.211Z,972.51
2022-11-18T02:49:04.171Z,972.49
2022-11-18T02:50:04.139Z,972.41
2022-11-18T02:51:04.160Z,972.32
2022-11-18T02:52:04.151Z,972.28
2022-11-18T02:53:04.141Z,972.31
2022-11-18T02:54:04.109Z,972.49
2022-11-18T02:55:04.086Z,972.54
2022-11-18T02:56:04.092Z,972.61
2022-11-18T02:57:04.096Z,972.59
2022-11-18T02:58:04.051Z,972.72
2022-11-18T02:59:04.079Z,972.73
2022-11-18T03:00:04.037Z,972.71
2022-11-18T03:01:04.124Z,972.73
2022-11-18T03:02:04.073Z,972.72
2022-11-18T03:03:04.012Z,972.76
2022-11-18T03:04:04.027Z,972.82
2022-11-18T03:05:03.968Z,972.81
2022-11-18T03:06:04.076Z,972.82
2022-11-18T03:07:04.008Z,972.87
2022-11-18T03:08:03.951Z,972.95
2022-11-18T03:09:03.924Z,972.91
2022-11-18T03:10:03.937Z,972.94
2022-11-18T03:11:03.959Z,972.90
2022-11-18T03:12:03.938Z,973.00
2022-11-18T03:13:03.884Z,972.94
2022-11-18T03:14:03.898Z,972.92
2022-11-18T03:15:03.865Z,972.95
2022-11-18T03:16:03.939Z,972.91
2022-11-18T03:17:03.882Z,972.98
2022-11-18T03:18:03.884Z,972.95
2022-11-18T03:19:03.841Z,973.00
2022-11-18T03:20:03.812Z,972.93
2022-11-18T03:21:03.851Z,972.97
2022-11-18T03:22:03.866Z,972.90
2022-11-18T03:23:03.814Z,972.93
2022-11-18T03:24:03.766Z,972.96
2022-11-18T03:25:03.767Z,972.94
2022-11-18T03:26:03.762Z,972.93
2022-11-18T03:27:03.762Z,972.91
2022-11-18T03:28:03.735Z,972.96
2022-11-18T03:29:03.775Z,972.98
2022-11-18T03:30:03.693Z,972.96
2022-11-18T03:31:03.705Z,972.98
2022-11-18T03:32:03.703Z,973.03
2022-11-18T03:33:03.670Z,973.03
2022-11-18T03:34:03.675Z,972.99
2022-11-18T03:35:03.676Z,973.05
2022-11-18T03:36:03.663Z,973.06
2022-11-18T03:37:07.759Z,973.04
2022-11-18T03:38:04.638Z,973.05
2022-11-18T03:39:03.850Z,973.08
2022-11-18T03:40:03.583Z,973.06
2022-11-18T03:41:03.591Z,973.09
2022-11-18T03:42:03.610Z,973.04
2022-11-18T03:43:03.551Z,973.04
2022-11-18T03:44:03.545Z,973.10
2022-11-18T03:45:03.563Z,973.11
2022-11-18T03:46:03.552Z,973.11
2022-11-18T03:47:03.518Z,973.07
2022-11-18T03:48:03.495Z,973.08
2022-11-18T03:49:03.507Z,973.10
2022-11-18T03:50:03.496Z,973.06
2022-11-18T03:51:03.500Z,973.13
2022-11-18T03:52:03.503Z,973.15
2022-11-18T03:53:03.439Z,973.13
2022-11-18T03:54:03.456Z,973.14
2022-11-18T03:55:03.503Z,973.16
2022-11-18T03:56:03.495Z,973.17
2022-11-18T03:57:03.440Z,973.19
2022-11-18T03:58:03.409Z,973.12
2022-11-18T03:59:03.393Z,973.17
2022-11-18T04:00:03.405Z,973.12
2022-11-18T04:01:03.397Z,973.20
2022-11-18T04:02:03.700Z,973.20
2022-11-18T04:03:03.507Z,973.20
2022-11-18T04:04:03.327Z,973.22
2022-11-18T04:05:03.397Z,973.19
2022-11-18T04:06:03.386Z,973.30
2022-11-18T04:07:03.396Z,973.27
2022-11-18T04:08:03.280Z,973.33
2022-11-18T04:09:03.273Z,973.30
2022-11-18T04:10:03.277Z,973.36
2022-11-18T04:11:03.274Z,973.34
2022-11-18T04:12:03.276Z,973.29
2022-11-18T04:13:06.484Z,973.33
2022-11-18T04:14:03.247Z,973.34
2022-11-18T04:15:03.196Z,973.37
2022-11-18T04:16:03.194Z,973.43
2022-11-18T04:17:03.225Z,973.44
2022-11-18T04:18:03.172Z,973.39
2022-11-18T04:19:06.356Z,973.42
2022-11-18T04:20:03.199Z,973.35
2022-11-18T04:21:03.224Z,973.39
2022-11-18T04:22:03.190Z,973.44
2022-11-18T04:23:03.131Z,973.45
2022-11-18T04:24:03.301Z,973.40
2022-11-18T04:25:03.116Z,973.46
2022-11-18T04:26:03.144Z,973.46
2022-11-18T04:27:03.144Z,973.48
2022-11-18T04:28:03.097Z,973.49
2022-11-18T04:29:03.059Z,973.44
2022-11-18T04:30:03.137Z,973.36
2022-11-18T04:31:03.028Z,973.44
2022-11-18T04:32:03.079Z,973.45
2022-11-18T04:33:03.007Z,973.47
2022-11-18T04:34:03.050Z,973.44
2022-11-18T04:35:03.061Z,973.44
2022-11-18T04:36:03.023Z,973.43
2022-11-18T04:37:02.999Z,973.45
2022-11-18T04:38:04.794Z,973.55
2022-11-18T04:39:02.967Z,973.49
2022-11-18T04:40:03.072Z,973.53
2022-11-18T04:41:03.002Z,973.56
2022-11-18T04:42:02.906Z,973.44
2022-11-18T04:43:03.002Z,973.53
2022-11-18T04:44:02.886Z,973.49
2022-11-18T04:45:02.884Z,973.52
2022-11-18T04:46:03.026Z,973.42
2022-11-18T04:47:02.867Z,973.44
2022-11-18T04:48:03.894Z,973.58
2022-11-18T04:49:02.842Z,973.51
2022-11-18T04:50:02.816Z,973.58
2022-11-18T04:51:02.848Z,973.61
2022-11-18T04:52:02.854Z,973.59
2022-11-18T04:53:02.811Z,973.65
2022-11-18T04:54:02.841Z,973.70
2022-11-18T04:55:02.783Z,973.69
2022-11-18T04:56:02.802Z,973.70
2022-11-18T04:57:02.801Z,973.77
2022-11-18T04:58:02.744Z,973.77
2022-11-18T04:59:02.763Z,973.73
2022-11-18T05:00:02.719Z,973.72
2022-11-18T05:01:02.816Z,973.75
2022-11-18T05:02:02.724Z,973.75
2022-11-18T05:03:02.748Z,973.73
2022-11-18T05:04:02.691Z,973.71
2022-11-18T05:05:02.670Z,973.75
2022-11-18T05:06:02.676Z,973.68
2022-11-18T05:07:02.758Z,973.76
2022-11-18T05:08:02.643Z,973.77
2022-11-18T05:09:02.654Z,973.75
2022-11-18T05:10:02.714Z,973.77
2022-11-18T05:11:02.634Z,973.83
2022-11-18T05:12:02.601Z,973.74
2022-11-18T05:13:02.566Z,973.80
2022-11-18T05:14:02.577Z,973.78
2022-11-18T05:15:02.574Z,973.80
2022-11-18T05:16:02.560Z,973.85
2022-11-18T05:17:02.566Z,973.84
2022-11-18T05:18:02.595Z,973.91
2022-11-18T05:19:02.515Z,973.94
2022-11-18T05:20:02.499Z,973.92
2022-11-18T05:21:02.479Z,973.97
2022-11-18T05:22:02.480Z,973.95
2022-11-18T05:23:02.452Z,973.92
2022-11-18T05:24:02.449Z,973.98
2022-11-18T05:25:02.463Z,974.07
2022-11-18T05:26:02.746Z,974.03
2022-11-18T05:27:02.481Z,974.03
2022-11-18T05:28:02.401Z,974.06
2022-11-18T05:29:02.398Z,974.18
2022-11-18T05:30:02.397Z,974.19
2022-11-18T05:31:02.467Z,974.17
2022-11-18T05:32:02.376Z,974.21
2022-11-18T05:33:02.359Z,974.18
2022-11-18T05:34:02.366Z,974.22
2022-11-18T05:35:02.326Z,974.26
2022-11-18T05:36:02.319Z,974.25
2022-11-18T05:37:02.400Z,974.31
2022-11-18T05:38:02.344Z,974.23
2022-11-18T05:39:02.302Z,974.26
2022-11-18T05:40:02.292Z,974.33
2022-11-18T05:41:02.265Z,974.28
2022-11-18T05:42:02.310Z,974.28
2022-11-18T05:43:02.295Z,974.32
2022-11-18T05:44:02.233Z,974.33
2022-11-18T05:45:02.221Z,974.33
2022-11-18T05:46:02.233Z,974.42
2022-11-18T05:47:02.210Z,974.44
2022-11-18T05:48:02.234Z,974.49
2022-11-18T05:49:02.179Z,974.46
2022-11-18T05:50:02.193Z,974.50
2022-11-18T05:51:02.178Z,974.51
2022-11-18T05:52:02.171Z,974.52
2022-11-18T05:53:02.179Z,974.49
2022-11-18T05:54:02.147Z,974.53
2022-11-18T05:55:02.097Z,974.45
2022-11-18T05:56:02.096Z,974.45
2022-11-18T05:57:02.129Z,974.44
2022-11-18T05:58:02.130Z,974.47
2022-11-18T05:59:02.084Z,974.49
2022-11-18T06:00:02.069Z,974.56
2022-11-18T06:01:02.048Z,974.54
2022-11-18T06:02:02.070Z,974.49
2022-11-18T06:03:02.214Z,974.47
2022-11-18T06:04:02.008Z,974.51
2022-11-18T06:05:02.019Z,974.54
2022-11-18T06:06:02.036Z,974.53
2022-11-18T06:07:02.086Z,974.58
2022-11-18T06:08:01.974Z,974.60
2022-11-18T06:09:01.970Z,974.62
2022-11-18T06:10:05.514Z,974.58
2022-11-18T06:11:01.948Z,974.63
2022-11-18T06:12:01.966Z,974.72
2022-11-18T06:13:01.917Z,974.61
2022-11-18T06:14:01.956Z,974.66
2022-11-18T06:15:01.985Z,974.64
2022-11-18T06:16:01.882Z,974.67
2022-11-18T06:17:01.910Z,974.73
2022-11-18T06:18:01.891Z,974.70
2022-11-18T06:19:01.850Z,974.70
2022-11-18T06:20:01.861Z,974.75
2022-11-18T06:21:01.828Z,974.73
2022-11-18T06:22:01.919Z,974.87
2022-11-18T06:23:01.816Z,974.82
2022-11-18T06:24:01.861Z,974.79
2022-11-18T06:25:01.785Z,974.89
2022-11-18T06:26:01.781Z,974.90
2022-11-18T06:27:01.827Z,974.90
2022-11-18T06:28:01.757Z,974.89
2022-11-18T06:29:01.799Z,974.87
2022-11-18T06:30:01.740Z,974.89
2022-11-18T06:31:01.768Z,974.91
2022-11-18T06:32:01.791Z,974.90
2022-11-18T06:33:01.696Z,974.96
2022-11-18T06:34:01.740Z,974.97
2022-11-18T06:35:01.680Z,975.02
2022-11-18T06:36:01.680Z,974.98
2022-11-18T06:37:01.734Z,974.97
2022-11-18T06:38:01.648Z,974.98
2022-11-18T06:39:01.679Z,975.01
2022-11-18T06:40:01.616Z,975.01
2022-11-18T06:41:01.628Z,974.98
2022-11-18T06:42:01.636Z,974.99
2022-11-18T06:43:01.641Z,975.07
2022-11-18T06:44:01.582Z,975.05
2022-11-18T06:45:01.636Z,975.08
2022-11-18T06:46:07.673Z,975.12
2022-11-18T06:47:02.587Z,975.13
2022-11-18T06:48:01.606Z,975.13
2022-11-18T06:49:01.516Z,975.23
2022-11-18T06:50:01.536Z,975.15
2022-11-18T06:51:01.512Z,975.23
2022-11-18T06:52:01.519Z,975.23
2022-11-18T06:53:01.498Z,975.22
2022-11-18T06:54:06.053Z,975.26
2022-11-18T06:55:02.492Z,975.27
2022-11-18T06:56:01.446Z,975.30
2022-11-18T06:57:01.455Z,975.30
2022-11-18T06:58:01.449Z,975.27
2022-11-18T06:59:01.461Z,975.33
2022-11-18T07:00:02.599Z,975.30
2022-11-18T07:01:01.441Z,975.35
2022-11-18T07:02:01.414Z,975.33
2022-11-18T07:03:01.389Z,975.33
2022-11-18T07:04:01.364Z,975.34
2022-11-18T07:05:01.380Z,975.37
2022-11-18T07:06:01.381Z,975.38
2022-11-18T07:07:01.469Z,975.46
2022-11-18T07:08:01.333Z,975.46
2022-11-18T07:09:01.320Z,975.44
2022-11-18T07:10:01.329Z,975.51
2022-11-18T07:11:01.304Z,975.49
2022-11-18T07:12:01.547Z,975.52
2022-11-18T07:13:01.295Z,975.51
2022-11-18T07:14:01.263Z,975.54
2022-11-18T07:15:01.272Z,975.50
2022-11-18T07:16:01.257Z,975.58
2022-11-18T07:17:01.251Z,975.54
2022-11-18T07:18:01.253Z,975.59
2022-11-18T07:19:01.239Z,975.66
2022-11-18T07:20:01.192Z,975.58
2022-11-18T07:21:01.227Z,975.59
2022-11-18T07:22:01.206Z,975.61
2022-11-18T07:23:01.160Z,975.64
2022-11-18T07:24:01.162Z,975.65
2022-11-18T07:25:01.155Z,975.63
2022-11-18T07:26:01.159Z,975.66
2022-11-18T07:27:01.177Z,975.78
2022-11-18T07:28:01.113Z,975.77
2022-11-18T07:29:01.118Z,975.71
2022-11-18T07:30:01.090Z,975.72
2022-11-18T07:31:01.086Z,975.77
2022-11-18T07:32:01.161Z,975.83
2022-11-18T07:33:01.076Z,975.81
2022-11-18T07:34:01.051Z,975.88
2022-11-18T07:35:01.049Z,975.76
2022-11-18T07:36:01.088Z,975.87
2022-11-18T07:37:01.109Z,975.76
2022-11-18T07:38:01.006Z,975.81
2022-11-18T07:39:00.994Z,975.81
2022-11-18T07:40:01.000Z,975.78
2022-11-18T07:41:00.958Z,975.80
2022-11-18T07:42:00.965Z,975.88
2022-11-18T07:43:00.979Z,975.79
2022-11-18T07:44:01.445Z,975.87
2022-11-18T07:45:00.953Z,975.85
2022-11-18T07:46:00.963Z,975.86
2022-11-18T07:47:00.915Z,975.90
2022-11-18T07:48:00.894Z,975.88
2022-11-18T07:49:00.961Z,975.96
2022-11-18T07:50:00.878Z,975.95
2022-11-18T07:51:00.921Z,975.98
2022-11-18T07:52:01.006Z,976.04
2022-11-18T07:53:00.859Z,976.08
2022-11-18T07:54:00.847Z,976.06
2022-11-18T07:55:00.813Z,976.05
2022-11-18T07:56:00.813Z,976.02
2022-11-18T07:57:00.815Z,976.07
2022-11-18T07:58:00.834Z,976.04
2022-11-18T07:59:00.760Z,976.15
2022-11-18T08:00:00.770Z,976.10
2022-11-18T08:01:00.825Z,976.11
2022-11-18T08:02:00.815Z,976.12
2022-11-18T08:03:00.742Z,976.11
2022-11-18T08:04:00.715Z,976.12
2022-11-18T08:05:00.747Z,976.17
2022-11-18T08:06:00.693Z,976.16
2022-11-18T08:07:00.784Z,976.16
2022-11-18T08:08:00.674Z,976.22
2022-11-18T08:09:00.667Z,976.25
2022-11-18T08:10:00.646Z,976.24
2022-11-18T08:11:00.632Z,976.26
2022-11-18T08:12:00.690Z,976.28
2022-11-18T08:13:00.631Z,976.27
2022-11-18T08:14:00.630Z,976.29
2022-11-18T08:15:00.656Z,976.29
2022-11-18T08:16:00.639Z,976.27
2022-11-18T08:17:00.606Z,976.31
2022-11-18T08:18:00.609Z,976.29
2022-11-18T08:19:00.672Z,976.37
2022-11-18T08:20:00.617Z,976.38
2022-11-18T08:21:00.527Z,976.44
2022-11-18T08:22:00.538Z,976.39
2022-11-18T08:23:00.662Z,976.43
2022-11-18T08:24:00.534Z,976.37
2022-11-18T08:25:00.491Z,976.42
2022-11-18T08:26:00.535Z,976.41
2022-11-18T08:27:00.483Z,976.44
2022-11-18T08:28:00.463Z,976.43
2022-11-18T08:29:00.534Z,976.44
2022-11-18T08:30:00.468Z,976.46
2022-11-18T08:31:00.433Z,976.49
2022-11-18T08:32:00.590Z,976.47
2022-11-18T08:33:00.405Z,976.46
2022-11-18T08:34:00.380Z,976.44
2022-11-18T08:35:00.372Z,976.46
2022-11-18T08:36:00.354Z,976.51
2022-11-18T08:37:00.383Z,976.47
2022-11-18T08:38:00.403Z,976.47
2022-11-18T08:39:00.420Z,976.55
2022-11-18T08:40:00.309Z,976.51
2022-11-18T08:41:00.303Z,976.57
2022-11-18T08:42:00.298Z,976.51
2022-11-18T08:43:00.308Z,976.48
2022-11-18T08:44:00.289Z,976.49
2022-11-18T08:45:00.252Z,976.45
2022-11-18T08:46:00.274Z,976.53
2022-11-18T08:47:00.280Z,976.57
2022-11-18T08:48:00.293Z,976.57
2022-11-18T08:49:00.302Z,976.45
2022-11-18T08:50:00.330Z,976.54
2022-11-18T08:51:00.208Z,976.47
2022-11-18T08:52:00.199Z,976.56
2022-11-18T08:53:00.168Z,976.49
2022-11-18T08:54:00.176Z,976.62
2022-11-18T08:55:00.165Z,976.53
2022-11-18T08:56:00.217Z,976.56
2022-11-18T08:57:00.175Z,976.56
2022-11-18T08:58:01.113Z,976.59
2022-11-18T08:59:00.204Z,976.57
2022-11-18T09:00:00.160Z,976.58
2022-11-18T09:01:00.107Z,976.62
2022-11-18T09:02:00.155Z,976.59
2022-11-18T09:03:00.071Z,976.60
2022-11-18T09:04:00.091Z,976.57
2022-11-18T09:05:00.110Z,976.61
2022-11-18T09:06:00.038Z,976.68
2022-11-18T09:07:00.143Z,976.67
2022-11-18T09:08:00.015Z,976.68
2022-11-18T09:09:05.983Z,976.59
2022-11-18T09:10:01.018Z,976.65
2022-11-18T09:10:59.997Z,976.71
2022-11-18T09:12:00.015Z,976.65
2022-11-18T09:13:18.444Z,976.72
2022-11-18T09:15:05.860Z,976.77
2022-11-18T09:15:16.914Z,976.65
2022-11-18T09:16:00.923Z,976.70
2022-11-18T09:16:59.992Z,976.72
2022-11-18T09:17:59.899Z,976.73
2022-11-18T09:19:04.914Z,976.77
2022-11-18T09:20:00.925Z,976.75
2022-11-18T09:20:59.889Z,976.72
2022-11-18T09:21:59.868Z,976.75
2022-11-18T09:22:59.845Z,976.76
2022-11-18T09:23:59.852Z,976.76
2022-11-18T09:24:59.831Z,976.79
2022-11-18T09:25:59.847Z,976.84
2022-11-18T09:26:59.848Z,976.80
2022-11-18T09:27:59.821Z,976.82
2022-11-18T09:28:59.800Z,976.86
2022-11-18T09:29:59.900Z,976.91
2022-11-18T09:30:59.766Z,976.85
2022-11-18T09:31:59.764Z,976.91
2022-11-18T09:32:59.752Z,976.93
2022-11-18T09:33:59.802Z,976.96
2022-11-18T09:34:59.789Z,976.93
2022-11-18T09:35:59.704Z,976.96
2022-11-18T09:36:59.705Z,976.89
2022-11-18T09:37:59.678Z,976.94
2022-11-18T09:38:59.685Z,976.95
2022-11-18T09:39:59.742Z,977.00
2022-11-18T09:40:59.645Z,976.98
2022-11-18T09:41:59.775Z,977.05
2022-11-18T09:42:59.764Z,977.03
2022-11-18T09:43:59.615Z,977.03
2022-11-18T09:44:59.666Z,977.00
2022-11-18T09:45:59.605Z,977.05
2022-11-18T09:46:59.608Z,976.96
2022-11-18T09:47:59.581Z,976.97
2022-11-18T09:48:59.598Z,977.06
2022-11-18T09:49:59.618Z,976.99
2022-11-18T09:50:59.570Z,977.05
2022-11-18T09:51:59.549Z,977.04
2022-11-18T09:52:59.551Z,977.04
2022-11-18T09:53:59.514Z,977.02
2022-11-18T09:54:59.527Z,977.15
2022-11-18T09:55:59.585Z,977.16
2022-11-18T09:56:59.568Z,977.13
2022-11-18T09:57:59.466Z,977.18
2022-11-18T09:58:59.491Z,977.18
2022-11-18T09:59:59.483Z,977.20
2022-11-18T10:00:59.439Z,977.19
2022-11-18T10:01:59.557Z,977.19
2022-11-18T10:02:59.442Z,977.26
2022-11-18T10:03:59.455Z,977.31
2022-11-18T10:04:59.434Z,977.35
2022-11-18T10:05:59.391Z,977.34
2022-11-18T10:06:59.429Z,977.37
2022-11-18T10:07:59.355Z,977.34
2022-11-18T10:08:59.383Z,977.36
2022-11-18T10:09:59.358Z,977.35
2022-11-18T10:10:59.321Z,977.35
2022-11-18T10:11:59.330Z,977.35
2022-11-18T10:12:59.333Z,977.42
2022-11-18T10:13:59.300Z,977.47
2022-11-18T10:14:59.305Z,977.40
2022-11-18T10:15:59.280Z,977.40
2022-11-18T10:16:59.292Z,977.37
2022-11-18T10:17:59.245Z,977.47
2022-11-18T10:19:00.705Z,977.44
2022-11-18T10:19:59.220Z,977.45
2022-11-18T10:20:59.251Z,977.40
2022-11-18T10:21:59.229Z,977.46
2022-11-18T10:22:59.205Z,977.49
2022-11-18T10:23:59.181Z,977.55
2022-11-18T10:24:59.235Z,977.54
2022-11-18T10:25:59.173Z,977.54
2022-11-18T10:26:59.210Z,977.56
2022-11-18T10:27:59.130Z,977.53
2022-11-18T10:28:59.121Z,977.55
2022-11-18T10:29:59.186Z,977.59
2022-11-18T10:30:59.135Z,977.55
2022-11-18T10:31:59.581Z,977.61
2022-11-18T10:32:59.117Z,977.67
2022-11-18T10:33:59.117Z,977.63
2022-11-18T10:34:59.111Z,977.71
2022-11-18T10:35:59.085Z,977.68
2022-11-18T10:36:59.124Z,977.65
2022-11-18T10:38:07.754Z,977.64
2022-11-18T10:39:00.053Z,977.59
2022-11-18T10:39:59.003Z,977.63
2022-11-18T10:40:59.011Z,977.67
2022-11-18T10:41:59.012Z,977.65
2022-11-18T10:42:59.010Z,977.63
2022-11-18T10:43:58.983Z,977.66
2022-11-18T10:44:58.988Z,977.62
2022-11-18T10:45:59.075Z,977.57
2022-11-18T10:46:58.967Z,977.67
2022-11-18T10:47:58.953Z,977.56
2022-11-18T10:48:58.966Z,977.57
2022-11-18T10:49:58.923Z,977.59
2022-11-18T10:50:58.960Z,977.64
2022-11-18T10:51:58.974Z,977.67
2022-11-18T10:52:59.291Z,977.66
2022-11-18T10:53:58.847Z,977.66
2022-11-18T10:54:58.886Z,977.71
2022-11-18T10:55:58.862Z,977.60
2022-11-18T10:56:58.856Z,977.65
2022-11-18T10:57:58.854Z,977.66
2022-11-18T10:58:58.800Z,977.63
2022-11-18T10:59:58.855Z,977.63
2022-11-18T11:00:58.798Z,977.68
2022-11-18T11:01:58.929Z,977.73
2022-11-18T11:02:58.809Z,977.64
2022-11-18T11:03:58.752Z,977.67
2022-11-18T11:04:58.732Z,977.62
2022-11-18T11:05:58.713Z,977.67
2022-11-18T11:06:58.870Z,977.73
2022-11-18T11:08:21.151Z,977.66
2022-11-18T11:08:59.681Z,977.64
2022-11-18T11:09:58.735Z,977.67
2022-11-18T11:10:58.688Z,977.66
2022-11-18T11:11:58.655Z,977.65
2022-11-18T11:12:58.661Z,977.66
2022-11-18T11:13:58.640Z,977.60
2022-11-18T11:14:58.729Z,977.60
2022-11-18T11:15:58.627Z,977.63
2022-11-18T11:16:58.691Z,977.60
2022-11-18T11:17:58.665Z,977.63
2022-11-18T11:18:58.616Z,977.57
2022-11-18T11:19:58.574Z,977.61
2022-11-18T11:20:58.670Z,977.66
2022-11-18T11:21:58.551Z,977.70
2022-11-18T11:22:58.563Z,977.61
2022-11-18T11:23:58.630Z,977.62
2022-11-18T11:24:58.572Z,977.62
2022-11-18T11:28:15.475Z,977.54
2022-11-18T11:28:59.500Z,977.53
2022-11-18T11:29:58.460Z,977.61
2022-11-18T11:30:58.452Z,977.57
2022-11-18T11:31:58.442Z,977.55
2022-11-18T11:32:58.469Z,977.56
2022-11-18T11:33:58.503Z,977.59
2022-11-18T11:34:58.505Z,977.58
2022-11-18T11:35:58.397Z,977.59
2022-11-18T11:36:58.397Z,977.59
2022-11-18T11:37:58.400Z,977.58
2022-11-18T11:39:04.049Z,977.55
2022-11-18T11:39:59.388Z,977.59
2022-11-18T11:40:58.417Z,977.55
2022-11-18T11:41:58.327Z,977.57
2022-11-18T11:42:58.328Z,977.60
2022-11-18T11:43:58.332Z,977.61
2022-11-18T11:44:58.363Z,977.63
2022-11-18T11:45:58.285Z,977.64
2022-11-18T11:46:58.299Z,977.61
2022-11-18T11:47:58.269Z,977.60
2022-11-18T11:48:58.303Z,977.57
2022-11-18T11:49:58.283Z,977.59
2022-11-18T11:51:03.851Z,977.61
2022-11-18T11:51:59.213Z,977.61
2022-11-18T11:52:58.215Z,977.62
2022-11-18T11:53:58.198Z,977.53
2022-11-18T11:54:58.210Z,977.52
2022-11-18T11:55:58.183Z,977.60
2022-11-18T11:56:58.211Z,977.57
2022-11-18T11:57:58.171Z,977.55
2022-11-18T11:58:58.187Z,977.57
2022-11-18T11:59:58.138Z,977.57
2022-11-18T12:00:58.120Z,977.59
2022-11-18T12:01:58.123Z,977.58
2022-11-18T12:02:58.395Z,977.52
2022-11-18T12:03:58.088Z,977.57
2022-11-18T12:04:58.086Z,977.62
2022-11-18T12:05:58.170Z,977.55
2022-11-18T12:06:58.132Z,977.56
2022-11-18T12:07:58.051Z,977.59
2022-11-18T12:08:58.152Z,977.59
2022-11-18T12:09:58.042Z,977.63
2022-11-18T12:10:58.029Z,977.63
2022-11-18T12:11:58.000Z,977.51
2022-11-18T12:12:57.987Z,977.50
2022-11-18T12:13:58.001Z,977.47
2022-11-18T12:14:57.982Z,977.52
2022-11-18T12:15:57.985Z,977.53
2022-11-18T12:16:57.993Z,977.61
2022-11-18T12:17:57.969Z,977.55
2022-11-18T12:18:58.004Z,977.58
2022-11-18T12:19:57.931Z,977.57
2022-11-18T12:20:57.899Z,977.52
2022-11-18T12:21:57.884Z,977.54
2022-11-18T12:22:57.939Z,977.57
2022-11-18T12:23:57.891Z,977.58
2022-11-18T12:24:57.892Z,977.53
2022-11-18T12:25:57.888Z,977.65
2022-11-18T12:26:57.840Z,977.55
2022-11-18T12:27:59.017Z,977.59
2022-11-18T12:28:57.816Z,977.62
2022-11-18T12:29:57.832Z,977.64
2022-11-18T12:30:57.893Z,977.67